^^
Saratoga-Weather Station Historical Data
Daily Summary for February 20, 2021 Units:  English    Metric   Both
Daily Weekly Monthly Yearly Custom
  High: Low: Average:
Temperature: 80.8 °F 65.7 °F 70.7 °F
Dew Point: 67.5 °F 59.4 °F 64.6 °F
Humidity: 95% 49% 82%
Wind Speed: 8.9mph 0mph 1.1mph
Wind Gust: 10mph - -
Wind- - SSW
Pressure: 29.8 in 29.6 in -
Precipitation: 0.09 in    
Historical Graphs
 
 
Tabular Data for February 20, 2021
Time Temperature Dew Point Pressure Wind Wind Speed Wind Gust Humidity Rainfall Rate (Hourly) solar
00:04 70.2 °F 67.5 °F 29.7 in West 6 mph 9 mph 91% 0.3 in 0 W/m2
00:09 70.2 °F 67.5 °F 29.7 in West 4 mph 10 mph 91% 0.17 in 0 W/m2
00:14 70.2 °F 67.5 °F 29.7 in West 4 mph 7 mph 91% 0.09 in 0 W/m2
00:19 70.2 °F 67.1 °F 29.7 in WSW 2 mph 7 mph 90% 0.09 in 0 W/m2
00:24 70.3 °F 67.3 °F 29.7 in WSW 2 mph 4 mph 90% 0.07 in 0 W/m2
00:29 70.2 °F 67.1 °F 29.7 in NW 0.9 mph 1 mph 90% 0.07 in 0 W/m2
00:34 70.2 °F 67.1 °F 29.7 in WSW 2.9 mph 4 mph 90% 0.01 in 0 W/m2
00:39 70 °F 67.3 °F 29.7 in West 0.9 mph 5 mph 91% 0 in 0 W/m2
00:44 69.6 °F 66.9 °F 29.7 in Calm   1 mph 91% 0 in 0 W/m2
00:49 69.6 °F 66.9 °F 29.7 in Calm   5 mph 91% 0 in 0 W/m2
00:54 69.4 °F 67.1 °F 29.7 in WSW 2 mph 3 mph 92% 0 in 0 W/m2
00:59 69.3 °F 66.9 °F 29.7 in SW 2.9 mph 3 mph 92% 0 in 0 W/m2
01:04 69.3 °F 66.9 °F 29.7 in West 0.9 mph 4 mph 92% 0 in 0 W/m2
01:09 69.1 °F 66.4 °F 29.7 in WSW 2 mph 3 mph 91% 0 in 0 W/m2
01:14 69.1 °F 66.4 °F 29.7 in Calm   4 mph 91% 0 in 0 W/m2
01:19 69.1 °F 66.4 °F 29.8 in Calm   4 mph 91% 0 in 0 W/m2
01:24 69.1 °F 66 °F 29.8 in Calm   4 mph 90% 0 in 0 W/m2
01:29 69.1 °F 66.4 °F 29.8 in ENE 2.9 mph 5 mph 91% 0 in 0 W/m2
01:34 69.1 °F 66 °F 29.8 in Calm     90% 0 in 0 W/m2
01:39 69.1 °F 66.4 °F 29.8 in WNW 0.9 mph 4 mph 91% 0 in 0 W/m2
01:44 68.9 °F 65.8 °F 29.8 in North 0.9 mph 2 mph 90% 0 in 0 W/m2
01:49 68.7 °F 66 °F 29.7 in North 2.9 mph 3 mph 91% 0 in 0 W/m2
01:54 68.5 °F 65.8 °F 29.8 in SSW 2 mph 3 mph 91% 0 in 0 W/m2
01:59 68.4 °F 65.7 °F 29.8 in NNE 0.9 mph 3 mph 91% 0 in 0 W/m2
02:04 68.5 °F 65.5 °F 29.7 in SSE 0.9 mph 3 mph 90% 0 in 0 W/m2
02:09 68.4 °F 65.7 °F 29.7 in Calm   2 mph 91% 0 in 0 W/m2
02:14 68.2 °F 65.5 °F 29.7 in Calm   1 mph 91% 0 in 0 W/m2
02:19 68 °F 65.3 °F 29.7 in Calm     91% 0 in 0 W/m2
02:24 67.8 °F 65.1 °F 29.7 in Calm   3 mph 91% 0 in 0 W/m2
02:29 67.6 °F 64.9 °F 29.7 in Calm     91% 0 in 0 W/m2
02:34 67.6 °F 64.9 °F 29.7 in Calm   1 mph 91% 0 in 0 W/m2
02:39 67.5 °F 64.8 °F 29.7 in Calm   1 mph 91% 0 in 0 W/m2
02:44 67.5 °F 64.8 °F 29.7 in Calm   2 mph 91% 0 in 0 W/m2
02:49 67.5 °F 65.1 °F 29.7 in Calm   1 mph 92% 0 in 0 W/m2
02:54 67.3 °F 64.9 °F 29.8 in NNW 0.9 mph 5 mph 92% 0 in 0 W/m2
02:59 67.3 °F 64.9 °F 29.8 in Calm   4 mph 92% 0 in 0 W/m2
03:04 67.1 °F 64.8 °F 29.8 in NNW 2.9 mph 3 mph 92% 0 in 0 W/m2
03:09 67.3 °F 64.9 °F 29.8 in NNW 2.9 mph 3 mph 92% 0 in 0 W/m2
03:14 67.3 °F 64.9 °F 29.8 in West 2.9 mph 6 mph 92% 0 in 0 W/m2
03:19 67.3 °F 64.6 °F 29.8 in Calm   2 mph 91% 0 in 0 W/m2
03:24 67.3 °F 64.6 °F 29.8 in NW 0.9 mph 5 mph 91% 0 in 0 W/m2
03:29 67.3 °F 64.6 °F 29.8 in NW 2.9 mph 7 mph 91% 0 in 0 W/m2
03:34 67.1 °F 64.4 °F 29.8 in Calm   4 mph 91% 0 in 0 W/m2
03:39 67.1 °F 64.4 °F 29.8 in NNW 2.9 mph 6 mph 91% 0 in 0 W/m2
03:44 67.1 °F 64.4 °F 29.8 in WNW 0.9 mph 3 mph 91% 0 in 0 W/m2
03:49 67.1 °F 64.4 °F 29.8 in WNW 2 mph 8 mph 91% 0 in 0 W/m2
03:54 67.1 °F 64.4 °F 29.8 in NNE 0.9 mph 9 mph 91% 0 in 0 W/m2
03:59 67.1 °F 64.4 °F 29.8 in NNW 2.9 mph 5 mph 91% 0 in 0 W/m2
04:04 67.1 °F 64.4 °F 29.8 in NW 2 mph 9 mph 91% 0 in 0 W/m2
04:09 67.1 °F 64.4 °F 29.8 in ENE 2 mph 5 mph 91% 0 in 0 W/m2
04:14 66.9 °F 64.2 °F 29.8 in WNW 2.9 mph 6 mph 91% 0 in 0 W/m2
04:19 66.9 °F 64.2 °F 29.8 in North 2 mph 2 mph 91% 0 in 0 W/m2
04:24 66.9 °F 64.2 °F 29.8 in NW 0.9 mph 4 mph 91% 0 in 0 W/m2
04:29 66.9 °F 64.2 °F 29.8 in NE 4 mph 7 mph 91% 0 in 0 W/m2
04:34 66.9 °F 64.2 °F 29.8 in WNW 8.9 mph 10 mph 91% 0 in 0 W/m2
04:40 67.1 °F 64.4 °F 29.8 in WNW 2.9 mph 4 mph 91% 0 in 0 W/m2
04:45 67.3 °F 64.2 °F 29.8 in West 2.9 mph 6 mph 90% 0 in 0 W/m2
04:50 67.3 °F 64.2 °F 29.8 in WNW 4 mph 8 mph 90% 0 in 0 W/m2
04:55 67.1 °F 64 °F 29.8 in West 2.9 mph 3 mph 90% 0 in 0 W/m2
05:00 67.1 °F 64 °F 29.8 in NW 4 mph 6 mph 90% 0 in 0 W/m2
05:05 67.1 °F 64 °F 29.8 in Calm   6 mph 90% 0 in 0 W/m2
05:10 66.9 °F 63.9 °F 29.8 in West 0.9 mph 7 mph 90% 0 in 0 W/m2
05:15 66.9 °F 63.9 °F 29.8 in NW 2.9 mph 7 mph 90% 0 in 0 W/m2
05:20 66.9 °F 63.9 °F 29.8 in North 2.9 mph 6 mph 90% 0 in 0 W/m2
05:25 66.9 °F 63.9 °F 29.8 in West 0.9 mph 4 mph 90% 0 in 0 W/m2
05:30 66.9 °F 63.9 °F 29.8 in Calm   2 mph 90% 0 in 0 W/m2
05:35 66.9 °F 63.9 °F 29.8 in WNW 4.9 mph 6 mph 90% 0 in 0 W/m2
05:40 66.9 °F 63.9 °F 29.8 in West 4 mph 8 mph 90% 0 in 0 W/m2
05:45 66.7 °F 63.7 °F 29.8 in NW 0.9 mph 10 mph 90% 0 in 7 W/m2
05:50 66.7 °F 63.7 °F 29.8 in WNW 2 mph 3 mph 90% 0 in 11 W/m2
05:55 66.6 °F 63.5 °F 29.8 in WNW 0.9 mph 4 mph 90% 0 in 11 W/m2
06:00 66.6 °F 63.9 °F 29.8 in Calm   4 mph 91% 0 in 12 W/m2
06:05 66.4 °F 63.7 °F 29.8 in Calm   2 mph 91% 0 in 14 W/m2
06:10 66.2 °F 63.5 °F 29.8 in Calm   4 mph 91% 0 in 18 W/m2
06:15 66 °F 63.3 °F 29.8 in NNW 2 mph 3 mph 91% 0 in 44 W/m2
06:20 66 °F 63.3 °F 29.8 in Calm   1 mph 91% 0 in 21 W/m2
06:25 66 °F 63.3 °F 29.8 in NNW 3 mph 3 mph 91% 0 in 21 W/m2
06:30 66 °F 63.7 °F 29.8 in Calm     92% 0 in 40 W/m2
06:35 65.8 °F 63.5 °F 29.8 in Calm     92% 0 in 35 W/m2
06:40 65.8 °F 63.5 °F 29.8 in Calm     92% 0 in 32 W/m2
06:45 65.7 °F 63.3 °F 29.8 in Calm     92% 0 in 39 W/m2
06:50 65.8 °F 63.5 °F 29.8 in Calm   2 mph 92% 0 in 51 W/m2
06:55 66 °F 63.7 °F 29.8 in NW 0.9 mph 1 mph 92% 0 in 46 W/m2
07:00 66 °F 63.7 °F 29.8 in WNW 0.9 mph 2 mph 92% 0 in 46 W/m2
07:05 66.4 °F 64 °F 29.8 in Calm   2 mph 92% 0 in 54 W/m2
07:10 66.6 °F 63.9 °F 29.8 in NNW 2 mph 5 mph 91% 0 in 77 W/m2
07:15 66.7 °F 64 °F 29.8 in NW 0.9 mph 4 mph 91% 0 in 74 W/m2
07:20 66.9 °F 63.9 °F 29.8 in NNW 2 mph 2 mph 90% 0 in 70 W/m2
07:25 66.9 °F 63.9 °F 29.8 in Calm   1 mph 90% 0 in 81 W/m2
07:30 66.9 °F 63.9 °F 29.8 in Calm   1 mph 90% 0 in 90 W/m2
07:35 67.3 °F 64.2 °F 29.8 in Calm   2 mph 90% 0 in 105 W/m2
07:40 67.3 °F 63.9 °F 29.8 in Calm   2 mph 89% 0 in 139 W/m2
07:45 67.5 °F 64 °F 29.8 in Calm   2 mph 89% 0 in 207 W/m2
07:50 67.6 °F 64.2 °F 29.8 in NW 0.9 mph 3 mph 89% 0 in 243 W/m2
07:55 67.8 °F 64.2 °F 29.8 in Calm   3 mph 88% 0 in 225 W/m2
08:00 68.2 °F 64.4 °F 29.8 in NNE 0.9 mph 1 mph 88% 0 in 278 W/m2
08:06 68.7 °F 64.8 °F 29.8 in WSW 5 mph 5 mph 87% 0 in 279 W/m2
08:11 68.7 °F 64.4 °F 29.8 in West 2 mph 9 mph 86% 0 in 211 W/m2
08:16 68.5 °F 64.2 °F 29.8 in WNW 6.9 mph 8 mph 86% 0 in 244 W/m2
08:21 68.4 °F 63.7 °F 29.8 in Calm   9 mph 85% 0 in 186 W/m2
08:26 68.4 °F 63.7 °F 29.8 in Calm   3 mph 85% 0 in 148 W/m2
08:31 68.5 °F 63.9 °F 29.8 in WNW 6.9 mph 8 mph 85% 0 in 128 W/m2
08:36 68.5 °F 63.5 °F 29.8 in Calm   3 mph 84% 0 in 91 W/m2
08:41 68.7 °F 63.7 °F 29.8 in West 2 mph 8 mph 84% 0 in 100 W/m2
08:46 68.7 °F 63.7 °F 29.8 in WNW 2 mph 4 mph 84% 0 in 91 W/m2
08:51 68.7 °F 63.3 °F 29.8 in Calm   5 mph 83% 0 in 93 W/m2
08:56 68.7 °F 63 °F 29.8 in NNE 0.9 mph 2 mph 82% 0 in 105 W/m2
09:01 68.9 °F 63.1 °F 29.8 in Calm   2 mph 82% 0 in 105 W/m2
09:06 69.3 °F 63.5 °F 29.8 in South 0.9 mph 3 mph 82% 0 in 188 W/m2
09:11 69.6 °F 63.5 °F 29.8 in ESE 0.9 mph 2 mph 81% 0 in 151 W/m2
09:16 70.5 °F 64.4 °F 29.8 in WSW 2 mph 3 mph 81% 0 in 274 W/m2
09:21 71.1 °F 64.6 °F 29.8 in SW 0.9 mph 4 mph 80% 0 in 415 W/m2
09:26 70.9 °F 63.3 °F 29.8 in NW 2 mph 3 mph 77% 0 in 135 W/m2
09:31 70.3 °F 62.8 °F 29.8 in Calm   3 mph 77% 0 in 105 W/m2
09:36 70.3 °F 63.9 °F 29.8 in NW 0.9 mph 2 mph 80% 0 in 557 W/m2
09:41 70.9 °F 63.7 °F 29.8 in East 2.9 mph 4 mph 78% 0 in 519 W/m2
09:46 71.4 °F 63.9 °F 29.8 in ENE 2 mph 3 mph 77% 0 in 615 W/m2
09:51 71.8 °F 64.2 °F 29.8 in NE 0.9 mph 3 mph 77% 0 in 192 W/m2
09:56 71.8 °F 63.5 °F 29.8 in ESE 2 mph 2 mph 75% 0 in 195 W/m2
10:01 72 °F 63.7 °F 29.8 in Calm     75% 0 in 494 W/m2
10:06 72 °F 63.1 °F 29.8 in WSW 0.9 mph 4 mph 74% 0 in 404 W/m2
10:11 72.1 °F 63.9 °F 29.8 in West 0.9 mph 2 mph 75% 0 in 290 W/m2
10:16 72.3 °F 63.5 °F 29.8 in East 2 mph 3 mph 74% 0 in 229 W/m2
10:21 72.7 °F 63.9 °F 29.8 in SE 0.9 mph 6 mph 74% 0 in 192 W/m2
10:26 72.1 °F 61.9 °F 29.8 in WNW 2.9 mph 7 mph 70% 0 in 714 W/m2
10:31 72.3 °F 62.1 °F 29.8 in NE 0.9 mph 3 mph 70% 0 in 754 W/m2
10:36 72.9 °F 62.4 °F 29.8 in NE 0.9 mph 7 mph 70% 0 in 617 W/m2
10:41 73.2 °F 62.4 °F 29.8 in WNW 4 mph 7 mph 69% 0 in 415 W/m2
10:46 72.9 °F 62.1 °F 29.8 in East 4 mph 7 mph 69% 0 in 327 W/m2
10:51 72.5 °F 61.7 °F 29.8 in WSW 0.9 mph 7 mph 69% 0 in 374 W/m2
10:56 72.5 °F 63 °F 29.8 in WSW 2.9 mph 3 mph 72% 0 in 345 W/m2
11:01 72.7 °F 62.2 °F 29.8 in NE 0.9 mph 3 mph 70% 0 in 255 W/m2
11:06 72.3 °F 62.1 °F 29.8 in Calm   3 mph 70% 0 in 248 W/m2
11:11 72.1 °F 62.6 °F 29.8 in NNE 0.9 mph 4 mph 72% 0 in 200 W/m2
11:16 72.3 °F 63.5 °F 29.8 in ENE 2 mph 2 mph 74% 0 in 425 W/m2
11:21 72.7 °F 63.5 °F 29.8 in West 2 mph 3 mph 73% 0 in 352 W/m2
11:26 72.9 °F 62.4 °F 29.8 in Calm   5 mph 70% 0 in 308 W/m2
11:31 72.9 °F 63 °F 29.8 in East 0.9 mph 2 mph 71% 0 in 364 W/m2
11:36 73 °F 63.1 °F 29.8 in Calm   5 mph 71% 0 in 299 W/m2
11:41 73 °F 62.6 °F 29.8 in Calm   1 mph 70% 0 in 311 W/m2
11:46 73.2 °F 63.3 °F 29.8 in WNW 0.9 mph 3 mph 71% 0 in 988 W/m2
11:51 73.4 °F 63.5 °F 29.8 in NNW 0.9 mph 2 mph 71% 0 in 956 W/m2
11:56 73.8 °F 63.7 °F 29.8 in West 0.9 mph 4 mph 71% 0 in 976 W/m2
12:01 73.8 °F 63.3 °F 29.8 in ENE 0.9 mph 3 mph 70% 0 in 267 W/m2
12:06 73.9 °F 63.1 °F 29.8 in Calm   2 mph 69% 0 in 302 W/m2
12:11 74.3 °F 62.6 °F 29.8 in East 0.9 mph 3 mph 67% 0 in 905 W/m2
12:16 74.8 °F 62.2 °F 29.8 in ESE 0.9 mph 4 mph 65% 0 in 265 W/m2
12:21 74.8 °F 62.2 °F 29.8 in East 2 mph 3 mph 65% 0 in 352 W/m2
12:26 74.7 °F 62.1 °F 29.8 in NE 2 mph 2 mph 65% 0 in 322 W/m2
12:31 74.7 °F 62.6 °F 29.8 in ENE 2 mph 3 mph 66% 0 in 454 W/m2
12:36 74.7 °F 64.2 °F 29.8 in ESE 2.9 mph 3 mph 70% 0 in 381 W/m2
12:41 74.8 °F 63.1 °F 29.8 in NNW 2.9 mph 3 mph 67% 0 in 443 W/m2
12:46 75.2 °F 62.6 °F 29.8 in NE 2.9 mph 3 mph 65% 0 in 893 W/m2
12:51 75.4 °F 63.1 °F 29.8 in East 0.9 mph 2 mph 66% 0 in 893 W/m2
12:56 75.9 °F 62.8 °F 29.8 in West 4 mph 4 mph 64% 0 in 923 W/m2
13:01 76.1 °F 63.9 °F 29.8 in WNW 2.9 mph 3 mph 66% 0 in 940 W/m2
13:06 76.6 °F 64 °F 29.8 in ENE 2 mph 5 mph 65% 0 in 990 W/m2
13:11 77.2 °F 64.6 °F 29.8 in ENE 2 mph 5 mph 65% 0 in 921 W/m2
13:16 77.2 °F 63.7 °F 29.8 in SE 0.9 mph 4 mph 63% 0 in 886 W/m2
13:21 77.2 °F 64.6 °F 29.8 in NNW 0.9 mph 2 mph 65% 0 in 789 W/m2
13:26 77.5 °F 64.4 °F 29.7 in Calm   2 mph 64% 0 in 972 W/m2
13:32 78.1 °F 63.5 °F 29.8 in East 0.9 mph 3 mph 61% 0 in 949 W/m2
13:37 78.4 °F 63.9 °F 29.8 in SSE 2 mph 2 mph 61% 0 in 972 W/m2
13:42 78.6 °F 64 °F 29.8 in SE 2.9 mph 5 mph 61% 0 in 904 W/m2
13:47 78.6 °F 61.5 °F 29.8 in ENE 2.9 mph 7 mph 56% 0 in 918 W/m2
13:52 78.3 °F 61.7 °F 29.7 in Calm   2 mph 57% 0 in 891 W/m2
13:57 78.4 °F 62.4 °F 29.7 in East 2 mph 7 mph 58% 0 in 888 W/m2
14:02 78.8 °F 63.7 °F 29.7 in ENE 2 mph 2 mph 60% 0 in 896 W/m2
14:07 79.2 °F 63.7 °F 29.7 in NW 0.9 mph 4 mph 59% 0 in 958 W/m2
14:12 79.3 °F 62.2 °F 29.7 in South 0.9 mph 6 mph 56% 0 in 819 W/m2
14:17 79.7 °F 62.6 °F 29.7 in ENE 0.9 mph 8 mph 56% 0 in 766 W/m2
14:22 79.7 °F 62.6 °F 29.7 in NE 2 mph 5 mph 56% 0 in 538 W/m2
14:27 79.7 °F 64 °F 29.7 in ESE 2 mph 8 mph 59% 0 in 406 W/m2
14:32 79.3 °F 61.7 °F 29.7 in ESE 2 mph 4 mph 55% 0 in 610 W/m2
14:37 79.3 °F 61.2 °F 29.7 in ENE 0.9 mph 1 mph 54% 0 in 357 W/m2
14:42 79 °F 61 °F 29.7 in NNE 0.9 mph 3 mph 54% 0 in 483 W/m2
14:47 79 °F 61.5 °F 29.7 in Calm   3 mph 55% 0 in 362 W/m2
14:52 79 °F 61.5 °F 29.7 in East 2.9 mph 3 mph 55% 0 in 306 W/m2
14:57 78.8 °F 60.3 °F 29.7 in NE 0.9 mph 1 mph 53% 0 in 468 W/m2
15:02 79 °F 60.4 °F 29.7 in ENE 0.9 mph 1 mph 53% 0 in 540 W/m2
15:07 79.5 °F 60.8 °F 29.7 in ENE 2 mph 6 mph 53% 0 in 907 W/m2
15:12 80.2 °F 59.4 °F 29.7 in NE 2 mph 3 mph 49% 0 in 833 W/m2
15:17 80.2 °F 60.4 °F 29.7 in WNW 0.9 mph 6 mph 51% 0 in 849 W/m2
15:22 80.1 °F 60.3 °F 29.7 in NNW 2 mph 4 mph 51% 0 in 786 W/m2
15:27 80.4 °F 62.8 °F 29.7 in Calm     55% 0 in 446 W/m2
15:32 80.6 °F 60.3 °F 29.7 in East 0.9 mph 4 mph 50% 0 in 431 W/m2
15:37 80.8 °F 61.5 °F 29.7 in South 0.9 mph 2 mph 52% 0 in 290 W/m2
15:42 80.8 °F 62.6 °F 29.7 in West 0.9 mph 3 mph 54% 0 in 153 W/m2
15:47 80.1 °F 63.5 °F 29.7 in WSW 2 mph 2 mph 57% 0 in 139 W/m2
15:52 79.3 °F 63.7 °F 29.7 in Calm     59% 0 in 104 W/m2
15:57 78.4 °F 63.3 °F 29.7 in SW 0.9 mph 2 mph 60% 0 in 74 W/m2
16:02 77.7 °F 64 °F 29.7 in SW 0.9 mph 2 mph 63% 0 in 153 W/m2
16:07 77.2 °F 63.1 °F 29.7 in WSW 0.9 mph 2 mph 62% 0.01 in 269 W/m2
16:12 76.6 °F 66.6 °F 29.7 in Calm   1 mph 71% 0.02 in 373 W/m2
16:17 76.3 °F 66.2 °F 29.7 in Calm   4 mph 71% 0.02 in 921 W/m2
16:22 76.5 °F 66 °F 29.7 in ENE 2 mph 2 mph 70% 0.02 in 758 W/m2
16:27 76.8 °F 67.5 °F 29.7 in ESE 2 mph 4 mph 73% 0.02 in 526 W/m2
16:32 77 °F 64.8 °F 29.7 in ESE 2 mph 4 mph 66% 0.02 in 397 W/m2
16:37 76.8 °F 64.6 °F 29.7 in SE 0.9 mph 3 mph 66% 0.02 in 353 W/m2
16:42 76.6 °F 64.4 °F 29.7 in SE 2 mph 3 mph 66% 0.02 in 338 W/m2
16:47 76.6 °F 65.7 °F 29.7 in SE 0.9 mph 1 mph 69% 0.02 in 352 W/m2
16:52 76.6 °F 64 °F 29.7 in Calm   2 mph 65% 0.02 in 322 W/m2
16:57 76.6 °F 63.5 °F 29.7 in Calm   5 mph 64% 0.02 in 260 W/m2
17:02 76.5 °F 64.2 °F 29.7 in Calm   2 mph 66% 0.02 in 199 W/m2
17:07 75.9 °F 65.8 °F 29.7 in Calm   5 mph 71% 0.01 in 141 W/m2
17:12 75.6 °F 66.7 °F 29.7 in South 0.9 mph 2 mph 74% 0 in 86 W/m2
17:17 74.8 °F 66 °F 29.7 in South 0.9 mph 2 mph 74% 0 in 51 W/m2
17:22 74.3 °F 65.5 °F 29.7 in Calm   1 mph 74% 0 in 32 W/m2
17:27 73.8 °F 65.7 °F 29.7 in Calm   1 mph 76% 0 in 23 W/m2
17:32 73 °F 65.5 °F 29.7 in South 0.9 mph 2 mph 77% 0 in 18 W/m2
17:37 72.5 °F 65.7 °F 29.7 in South 0.9 mph 1 mph 79% 0 in 18 W/m2
17:42 72 °F 66.2 °F 29.7 in South 0.9 mph 2 mph 82% 0.01 in 23 W/m2
17:47 71.2 °F 66.2 °F 29.7 in South 2 mph 2 mph 84% 0.02 in 26 W/m2
17:52 70.7 °F 66.4 °F 29.7 in Calm   1 mph 86% 0.02 in 44 W/m2
17:57 70.3 °F 66.6 °F 29.7 in Calm   1 mph 88% 0.04 in 72 W/m2
18:02 70.2 °F 66.7 °F 29.7 in Calm     89% 0.05 in 127 W/m2
18:07 70 °F 66.9 °F 29.7 in South 2 mph 2 mph 90% 0.06 in 148 W/m2
18:12 69.8 °F 67.1 °F 29.7 in South 0.9 mph 2 mph 91% 0.06 in 158 W/m2
18:17 69.6 °F 67.3 °F 29.7 in Calm     92% 0.06 in 107 W/m2
18:22 69.6 °F 67.3 °F 29.7 in Calm     92% 0.06 in 58 W/m2
18:27 69.4 °F 67.1 °F 29.7 in Calm     92% 0.06 in 65 W/m2
18:32 69.3 °F 66.9 °F 29.7 in Calm     92% 0.06 in 86 W/m2
18:37 69.1 °F 66.7 °F 29.7 in Calm     92% 0.06 in 90 W/m2
18:42 68.9 °F 66.6 °F 29.7 in Calm     92% 0.05 in 105 W/m2
18:47 68.9 °F 66.6 °F 29.7 in Calm     92% 0.05 in 160 W/m2
18:52 69.1 °F 66.9 °F 29.7 in Calm     93% 0.04 in 142 W/m2
18:57 69.3 °F 67.1 °F 29.7 in Calm     93% 0.02 in 90 W/m2
19:02 69.4 °F 67.3 °F 29.7 in Calm     93% 0.02 in 51 W/m2
19:07 69.4 °F 67.3 °F 29.7 in Calm     93% 0.01 in 47 W/m2
19:12 69.4 °F 67.3 °F 29.7 in ESE 0.9 mph 3 mph 93% 0.01 in 47 W/m2
19:17 69.1 °F 66.7 °F 29.7 in Calm   4 mph 92% 0.01 in 63 W/m2
19:22 69.3 °F 66.9 °F 29.7 in Calm     92% 0.01 in 70 W/m2
19:27 69.4 °F 67.3 °F 29.7 in Calm   3 mph 93% 0.01 in 69 W/m2
19:32 69.4 °F 67.3 °F 29.7 in Calm     93% 0.01 in 67 W/m2
19:37 69.4 °F 67.3 °F 29.7 in Calm     93% 0.01 in 121 W/m2
19:42 69.4 °F 67.3 °F 29.7 in Calm     93% 0.01 in 84 W/m2
19:47 69.4 °F 67.3 °F 29.7 in Calm     93% 0 in 46 W/m2
19:52 69.4 °F 67.3 °F 29.7 in Calm     93% 0 in 54 W/m2
19:57 69.4 °F 67.3 °F 29.7 in Calm     93% 0 in 49 W/m2
20:02 69.6 °F 67.5 °F 29.7 in Calm     93% 0 in 21 W/m2
20:07 69.4 °F 67.3 °F 29.7 in South 0.9 mph 2 mph 93% 0 in 16 W/m2
20:22 68.9 °F 66.7 °F 29.7 in Calm     93% 0 in 5 W/m2
20:27 68.7 °F 66.6 °F 29.7 in Calm     93% 0 in 5 W/m2
20:32 68.5 °F 66.4 °F 29.7 in Calm     93% 0 in 11 W/m2
20:37 68.5 °F 66.4 °F 29.7 in Calm     93% 0 in 14 W/m2
20:42 68.4 °F 66.6 °F 29.7 in Calm     94% 0 in 14 W/m2
20:47 68.4 °F 66.6 °F 29.7 in Calm     94% 0 in 18 W/m2
20:52 68.4 °F 66.6 °F 29.7 in Calm     94% 0 in 19 W/m2
20:57 68.5 °F 66.7 °F 29.7 in Calm     94% 0 in 14 W/m2
21:02 68.5 °F 66.7 °F 29.7 in Calm     94% 0 in 5 W/m2
21:07 68.5 °F 66.7 °F 29.7 in Calm     94% 0 in 0 W/m2
21:12 68.5 °F 66.7 °F 29.7 in Calm     94% 0 in 0 W/m2
21:17 68.5 °F 67.1 °F 29.7 in Calm     95% 0 in 0 W/m2
21:22 68.5 °F 66.7 °F 29.7 in Calm     94% 0 in 0 W/m2
21:27 68.4 °F 66.6 °F 29.6 in Calm     94% 0 in 0 W/m2
21:32 68.4 °F 66.9 °F 29.6 in Calm     95% 0 in 0 W/m2
21:37 68.2 °F 66.7 °F 29.7 in Calm     95% 0.01 in 0 W/m2
21:42 68.2 °F 66.7 °F 29.7 in Calm     95% 0.01 in 0 W/m2
21:47 68 °F 66.6 °F 29.7 in Calm     95% 0.01 in 0 W/m2
21:52 68 °F 66.6 °F 29.6 in Calm     95% 0.01 in 0 W/m2
21:57 67.8 °F 66.4 °F 29.7 in Calm     95% 0.01 in 0 W/m2
22:02 68 °F 66.6 °F 29.6 in ENE 0.9 mph 2 mph 95% 0.01 in 0 W/m2
22:07 68 °F 66.6 °F 29.6 in ENE 0.9 mph 3 mph 95% 0.01 in 0 W/m2
22:12 68 °F 66.2 °F 29.6 in Calm   3 mph 94% 0.01 in 0 W/m2
22:17 68 °F 66.2 °F 29.6 in Calm   2 mph 94% 0.01 in 0 W/m2
22:22 68 °F 66.2 °F 29.6 in Calm     94% 0.01 in 0 W/m2
22:27 67.8 °F 66 °F 29.6 in Calm   2 mph 94% 0.01 in 0 W/m2
22:32 67.8 °F 66 °F 29.6 in Calm     94% 0.01 in 0 W/m2
22:37 67.6 °F 65.8 °F 29.6 in Calm     94% 0 in 0 W/m2
22:42 67.6 °F 65.8 °F 29.6 in Calm     94% 0 in 0 W/m2
22:47 67.5 °F 65.7 °F 29.6 in Calm     94% 0 in 0 W/m2
22:52 67.3 °F 65.5 °F 29.6 in ENE 0.9 mph 1 mph 94% 0 in 0 W/m2
22:57 66.9 °F 65.1 °F 29.6 in ENE 4 mph 7 mph 94% 0 in 0 W/m2
23:02 66.9 °F 65.1 °F 29.6 in NE 2 mph 4 mph 94% 0 in 0 W/m2
23:07 66.9 °F 65.1 °F 29.6 in NNW 0.9 mph 7 mph 94% 0 in 0 W/m2
23:13 67.3 °F 65.1 °F 29.6 in Calm   1 mph 93% 0 in 0 W/m2
23:18 67.3 °F 65.1 °F 29.6 in NE 0.9 mph 2 mph 93% 0 in 0 W/m2
23:23 67.3 °F 64.9 °F 29.6 in ESE 0.9 mph 3 mph 92% 0 in 0 W/m2
23:28 66.9 °F 64.6 °F 29.6 in ENE 2 mph 4 mph 92% 0 in 0 W/m2
23:33 66.7 °F 64 °F 29.6 in NE 0.9 mph 3 mph 91% 0 in 0 W/m2
23:38 66.7 °F 64 °F 29.6 in Calm   2 mph 91% 0 in 0 W/m2
23:43 66.7 °F 64 °F 29.6 in NNW 2 mph 2 mph 91% 0 in 0 W/m2
23:48 66.6 °F 64.2 °F 29.6 in NE 0.9 mph 3 mph 92% 0 in 0 W/m2
23:53 66.6 °F 64.2 °F 29.6 in NW 2 mph 3 mph 92% 0 in 0 W/m2
23:58 66.6 °F 64.2 °F 29.6 in NNW 2 mph 3 mph 92% 0 in 0 W/m2
Juneau County Weather
Compliments of Weather Underground - 2 mb